sensor_id;sensor_type;location;lat;lon;timestamp;pressure;altitude;pressure_sealevel;temperature;humidity
25156;BME280;21913;52.456;13.634;2023-04-05T00:04:47;101114.13;;;11.65;56.67
25156;BME280;21913;52.456;13.634;2023-04-05T00:09:49;101112.41;;;11.65;56.73
25156;BME280;21913;52.456;13.634;2023-04-05T00:14:50;101111.50;;;11.63;56.80
25156;BME280;21913;52.456;13.634;2023-04-05T00:19:52;101108.03;;;11.63;56.61
25156;BME280;21913;52.456;13.634;2023-04-05T00:24:53;101111.50;;;11.63;56.92
25156;BME280;21913;52.456;13.634;2023-04-05T00:29:55;101108.06;;;11.64;56.97
25156;BME280;21913;52.456;13.634;2023-04-05T00:34:56;101116.72;;;11.65;56.71
25156;BME280;21913;52.456;13.634;2023-04-05T00:39:58;101105.44;;;11.63;56.85
25156;BME280;21913;52.456;13.634;2023-04-05T00:44:59;101109.81;;;11.64;56.81
25156;BME280;21913;52.456;13.634;2023-04-05T00:50:02;101104.56;;;11.62;57.03
25156;BME280;21913;52.456;13.634;2023-04-05T00:55:05;101103.75;;;11.65;57.07
25156;BME280;21913;52.456;13.634;2023-04-05T01:00:07;101092.47;;;11.63;57.03
25156;BME280;21913;52.456;13.634;2023-04-05T01:05:17;101082.13;;;11.63;57.19
25156;BME280;21913;52.456;13.634;2023-04-05T01:10:29;101089.03;;;11.62;57.06
25156;BME280;21913;52.456;13.634;2023-04-05T01:15:33;101089.06;;;11.64;57.05
25156;BME280;21913;52.456;13.634;2023-04-05T01:20:37;101084.75;;;11.64;57.21
25156;BME280;21913;52.456;13.634;2023-04-05T01:36:29;101075.19;;;11.63;57.14
25156;BME280;21913;52.456;13.634;2023-04-05T01:41:31;101069.16;;;11.63;57.12
25156;BME280;21913;52.456;13.634;2023-04-05T01:46:33;101062.22;;;11.62;57.26
25156;BME280;21913;52.456;13.634;2023-04-05T01:51:34;101057.91;;;11.62;57.34
25156;BME280;21913;52.456;13.634;2023-04-05T01:56:36;101059.63;;;11.62;57.26
25156;BME280;21913;52.456;13.634;2023-04-05T02:01:38;101047.53;;;11.62;57.34
25156;BME280;21913;52.456;13.634;2023-04-05T02:06:39;101048.41;;;11.63;57.35
25156;BME280;21913;52.456;13.634;2023-04-05T02:11:41;101046.69;;;11.62;57.28
25156;BME280;21913;52.456;13.634;2023-04-05T02:16:42;101038.91;;;11.62;57.32
25156;BME280;21913;52.456;13.634;2023-04-05T02:21:44;101044.94;;;11.62;57.39
25156;BME280;21913;52.456;13.634;2023-04-05T02:26:46;101038.03;;;11.63;57.27
25156;BME280;21913;52.456;13.634;2023-04-05T02:31:47;101042.34;;;11.62;57.48
25156;BME280;21913;52.456;13.634;2023-04-05T02:36:50;101033.72;;;11.62;57.47
25156;BME280;21913;52.456;13.634;2023-04-05T02:41:52;101029.41;;;11.62;57.48
25156;BME280;21913;52.456;13.634;2023-04-05T02:46:53;101031.13;;;11.62;57.42
25156;BME280;21913;52.456;13.634;2023-04-05T02:52:00;101027.66;;;11.61;57.36
25156;BME280;21913;52.456;13.634;2023-04-05T02:57:02;101028.53;;;11.62;57.49
25156;BME280;21913;52.456;13.634;2023-04-05T03:02:13;101035.44;;;11.61;57.45
25156;BME280;21913;52.456;13.634;2023-04-05T03:07:15;101042.34;;;11.62;57.58
25156;BME280;21913;52.456;13.634;2023-04-05T03:12:17;101019.88;;;11.61;57.56
25156;BME280;21913;52.456;13.634;2023-04-05T03:17:19;101028.53;;;11.62;57.60
25156;BME280;21913;52.456;13.634;2023-04-05T03:22:31;101018.16;;;11.60;57.66
25156;BME280;21913;52.456;13.634;2023-04-05T03:27:35;101022.47;;;11.59;57.63
25156;BME280;21913;52.456;13.634;2023-04-05T03:32:43;101020.75;;;11.62;57.58
25156;BME280;21913;52.456;13.634;2023-04-05T03:38:06;101020.75;;;11.60;57.62
25156;BME280;21913;52.456;13.634;2023-04-05T03:43:10;101022.47;;;11.61;57.60
25156;BME280;21913;52.456;13.634;2023-04-05T03:48:12;101016.44;;;11.61;57.72
25156;BME280;21913;52.456;13.634;2023-04-05T03:53:14;101013.84;;;11.61;57.74
25156;BME280;21913;52.456;13.634;2023-04-05T03:58:16;101012.09;;;11.59;57.73
25156;BME280;21913;52.456;13.634;2023-04-05T04:03:18;101012.97;;;11.60;57.61
25156;BME280;21913;52.456;13.634;2023-04-05T04:08:23;101002.59;;;11.60;57.81
25156;BME280;21913;52.456;13.634;2023-04-05T04:13:24;101004.34;;;11.59;57.73
25156;BME280;21913;52.456;13.634;2023-04-05T04:18:50;101000.00;;;11.58;57.69
25156;BME280;21913;52.456;13.634;2023-04-05T04:23:52;101011.25;;;11.59;57.67
25156;BME280;21913;52.456;13.634;2023-04-05T04:29:12;101004.34;;;11.59;57.71
25156;BME280;21913;52.456;13.634;2023-04-05T04:34:31;101003.47;;;11.59;57.91
25156;BME280;21913;52.456;13.634;2023-04-05T04:39:45;101001.75;;;11.59;57.58
25156;BME280;21913;52.456;13.634;2023-04-05T04:45:06;101004.34;;;11.59;58.04
25156;BME280;21913;52.456;13.634;2023-04-05T04:50:24;101000.88;;;11.59;57.98
25156;BME280;21913;52.456;13.634;2023-04-05T04:55:25;101006.06;;;11.61;57.80
25156;BME280;21913;52.456;13.634;2023-04-05T05:00:27;100995.69;;;11.59;57.89
25156;BME280;21913;52.456;13.634;2023-04-05T05:05:29;101002.59;;;11.60;57.90
25156;BME280;21913;52.456;13.634;2023-04-05T05:10:30;100999.13;;;11.58;57.80
25156;BME280;21913;52.456;13.634;2023-04-05T05:15:38;101007.78;;;11.58;57.93
25156;BME280;21913;52.456;13.634;2023-04-05T05:20:40;101008.66;;;11.59;58.00
25156;BME280;21913;52.456;13.634;2023-04-05T05:25:42;101010.38;;;11.58;57.79
25156;BME280;21913;52.456;13.634;2023-04-05T05:30:43;101006.94;;;11.59;57.99
25156;BME280;21913;52.456;13.634;2023-04-05T05:35:48;101006.06;;;11.59;57.93
25156;BME280;21913;52.456;13.634;2023-04-05T05:40:56;101008.66;;;11.59;57.95
25156;BME280;21913;52.456;13.634;2023-04-05T05:46:00;101006.06;;;11.59;58.09
25156;BME280;21913;52.456;13.634;2023-04-05T05:51:02;100993.94;;;11.58;57.99
25156;BME280;21913;52.456;13.634;2023-04-05T05:56:04;101005.19;;;11.58;58.04
25156;BME280;21913;52.456;13.634;2023-04-05T06:01:05;100998.25;;;11.57;57.89
25156;BME280;21913;52.456;13.634;2023-04-05T06:06:07;101004.31;;;11.58;58.07
25156;BME280;21913;52.456;13.634;2023-04-05T06:11:18;101000.00;;;11.58;58.10
25156;BME280;21913;52.456;13.634;2023-04-05T06:16:20;101005.19;;;11.58;58.05
25156;BME280;21913;52.456;13.634;2023-04-05T06:21:22;101005.16;;;11.57;58.09
25156;BME280;21913;52.456;13.634;2023-04-05T06:26:24;101000.84;;;11.57;58.06
25156;BME280;21913;52.456;13.634;2023-04-05T06:31:29;101003.44;;;11.57;57.96
25156;BME280;21913;52.456;13.634;2023-04-05T06:36:31;101000.84;;;11.57;58.10
25156;BME280;21913;52.456;13.634;2023-04-05T06:41:33;101003.47;;;11.59;58.10
25156;BME280;21913;52.456;13.634;2023-04-05T06:46:34;101001.72;;;11.58;58.16
25156;BME280;21913;52.456;13.634;2023-04-05T06:51:36;100999.97;;;11.57;58.05
25156;BME280;21913;52.456;13.634;2023-04-05T06:56:37;101004.31;;;11.58;58.12
25156;BME280;21913;52.456;13.634;2023-04-05T07:01:39;101003.44;;;11.57;58.30
25156;BME280;21913;52.456;13.634;2023-04-05T07:06:40;100998.25;;;11.57;58.09
25156;BME280;21913;52.456;13.634;2023-04-05T07:11:42;100991.31;;;11.56;58.20
25156;BME280;21913;52.456;13.634;2023-04-05T07:16:43;100998.25;;;11.57;58.34
25156;BME280;21913;52.456;13.634;2023-04-05T07:21:45;100985.28;;;11.57;58.35
25156;BME280;21913;52.456;13.634;2023-04-05T07:26:46;100987.00;;;11.57;58.27
25156;BME280;21913;52.456;13.634;2023-04-05T07:31:48;100974.91;;;11.57;58.50
25156;BME280;21913;52.456;13.634;2023-04-05T07:36:49;100988.78;;;11.58;58.41
25156;BME280;21913;52.456;13.634;2023-04-05T07:41:51;100980.97;;;11.56;58.31
25156;BME280;21913;52.456;13.634;2023-04-05T07:46:52;100977.50;;;11.57;58.24
25156;BME280;21913;52.456;13.634;2023-04-05T07:51:55;100972.31;;;11.57;58.35
25156;BME280;21913;52.456;13.634;2023-04-05T07:56:56;100982.69;;;11.57;58.26
25156;BME280;21913;52.456;13.634;2023-04-05T08:01:58;100984.41;;;11.57;58.43
25156;BME280;21913;52.456;13.634;2023-04-05T08:07:02;100980.09;;;11.57;58.62
25156;BME280;21913;52.456;13.634;2023-04-05T08:12:04;100987.88;;;11.57;58.58
25156;BME280;21913;52.456;13.634;2023-04-05T08:17:05;100981.00;;;11.59;58.56
25156;BME280;21913;52.456;13.634;2023-04-05T08:22:07;100981.00;;;11.61;58.46
25156;BME280;21913;52.456;13.634;2023-04-05T08:27:08;100972.41;;;11.64;58.01
25156;BME280;21913;52.456;13.634;2023-04-05T08:32:10;100972.41;;;11.65;57.66
25156;BME280;21913;52.456;13.634;2023-04-05T08:37:11;100974.19;;;11.69;57.56
25156;BME280;21913;52.456;13.634;2023-04-05T08:42:17;100975.94;;;11.72;57.58
25156;BME280;21913;52.456;13.634;2023-04-05T08:47:20;100979.41;;;11.74;57.50
25156;BME280;21913;52.456;13.634;2023-04-05T08:52:24;100976.84;;;11.75;57.65
25156;BME280;21913;52.456;13.634;2023-04-05T08:57:27;100974.09;;;11.58;51.74
25156;BME280;21913;52.456;13.634;2023-04-05T09:02:29;100979.69;;;11.22;47.29
25156;BME280;21913;52.456;13.634;2023-04-05T09:07:31;100970.88;;;11.06;45.94
25156;BME280;21913;52.456;13.634;2023-04-05T09:12:34;100974.13;;;10.92;44.38
25156;BME280;21913;52.456;13.634;2023-04-05T09:17:38;100968.91;;;10.89;43.25
25156;BME280;21913;52.456;13.634;2023-04-05T09:22:44;100966.16;;;10.76;42.33
25156;BME280;21913;52.456;13.634;2023-04-05T09:27:54;100965.19;;;10.70;42.10
25156;BME280;21913;52.456;13.634;2023-04-05T09:32:56;100958.28;;;10.69;41.86
25156;BME280;21913;52.456;13.634;2023-04-05T09:38:00;100954.09;;;10.77;41.88
25156;BME280;21913;52.456;13.634;2023-04-05T09:43:03;100955.84;;;10.79;41.69
25156;BME280;21913;52.456;13.634;2023-04-05T09:48:04;100958.56;;;10.90;41.86
25156;BME280;21913;52.456;13.634;2023-04-05T09:53:10;100951.88;;;11.06;42.52
25156;BME280;21913;52.456;13.634;2023-04-05T09:58:17;100954.59;;;11.18;44.27
25156;BME280;21913;52.456;13.634;2023-04-05T10:03:19;100949.56;;;11.29;45.24
25156;BME280;21913;52.456;13.634;2023-04-05T10:08:21;100938.38;;;11.35;45.34
25156;BME280;21913;52.456;13.634;2023-04-05T10:13:23;100941.03;;;11.41;45.70
25156;BME280;21913;52.456;13.634;2023-04-05T10:18:29;100936.78;;;11.44;46.17
25156;BME280;21913;52.456;13.634;2023-04-05T10:23:35;100940.22;;;11.45;46.49
25156;BME280;21913;52.456;13.634;2023-04-05T10:28:42;100935.06;;;11.46;46.83
25156;BME280;21913;52.456;13.634;2023-04-05T10:33:49;100931.66;;;11.49;47.59
25156;BME280;21913;52.456;13.634;2023-04-05T10:39:00;100922.16;;;11.49;47.75
25156;BME280;21913;52.456;13.634;2023-04-05T10:44:04;100927.31;;;11.49;48.09
25156;BME280;21913;52.456;13.634;2023-04-05T10:49:19;100929.94;;;11.51;48.50
25156;BME280;21913;52.456;13.634;2023-04-05T10:54:22;100915.22;;;11.50;47.83
25156;BME280;21913;52.456;13.634;2023-04-05T10:59:24;100915.22;;;11.48;47.49
25156;BME280;21913;52.456;13.634;2023-04-05T11:04:27;100912.66;;;11.50;47.98
25156;BME280;21913;52.456;13.634;2023-04-05T11:09:28;100906.59;;;11.51;48.47
25156;BME280;21913;52.456;13.634;2023-04-05T11:14:36;100910.06;;;11.51;49.10
25156;BME280;21913;52.456;13.634;2023-04-05T11:24:53;100891.06;;;11.52;49.61
25156;BME280;21913;52.456;13.634;2023-04-05T11:29:57;100887.59;;;11.50;46.28
25156;BME280;21913;52.456;13.634;2023-04-05T11:35:04;100884.13;;;11.50;45.48
25156;BME280;21913;52.456;13.634;2023-04-05T11:40:37;100878.94;;;11.48;46.10
25156;BME280;21913;52.456;13.634;2023-04-05T11:45:39;100876.38;;;11.50;45.36
25156;BME280;21913;52.456;13.634;2023-04-05T11:50:41;100866.00;;;11.50;46.60
25156;BME280;21913;52.456;13.634;2023-04-05T11:55:47;100863.41;;;11.51;47.33
25156;BME280;21913;52.456;13.634;2023-04-05T12:01:09;100855.63;;;11.51;48.14
25156;BME280;21913;52.456;13.634;2023-04-05T12:06:11;100847.00;;;11.51;48.63
25156;BME280;21913;52.456;13.634;2023-04-05T12:11:12;100844.41;;;11.51;48.97
25156;BME280;21913;52.456;13.634;2023-04-05T12:16:14;100848.72;;;11.52;49.15
25156;BME280;21913;52.456;13.634;2023-04-05T12:21:16;100839.22;;;11.51;49.56
25156;BME280;21913;52.456;13.634;2023-04-05T12:26:18;100832.31;;;11.51;49.74
25156;BME280;21913;52.456;13.634;2023-04-05T12:31:39;100830.59;;;11.52;50.12
25156;BME280;21913;52.456;13.634;2023-04-05T12:36:45;100831.44;;;11.52;50.20
25156;BME280;21913;52.456;13.634;2023-04-05T12:41:57;100828.84;;;11.52;50.57
25156;BME280;21913;52.456;13.634;2023-04-05T12:47:02;100819.38;;;11.53;50.78
25156;BME280;21913;52.456;13.634;2023-04-05T12:52:04;100821.09;;;11.51;50.92
25156;BME280;21913;52.456;13.634;2023-04-05T12:57:05;100815.03;;;11.52;51.09
25156;BME280;21913;52.456;13.634;2023-04-05T13:02:07;100805.53;;;11.51;51.11
25156;BME280;21913;52.456;13.634;2023-04-05T13:07:09;100803.84;;;11.53;51.22
25156;BME280;21913;52.456;13.634;2023-04-05T13:12:10;100799.47;;;11.52;51.39
25156;BME280;21913;52.456;13.634;2023-04-05T13:17:12;100791.66;;;11.44;46.44
25156;BME280;21913;52.456;13.634;2023-04-05T13:22:13;100789.94;;;11.45;45.85
25156;BME280;21913;52.456;13.634;2023-04-05T13:27:15;100792.53;;;11.46;46.02
25156;BME280;21913;52.456;13.634;2023-04-05T13:32:16;100783.94;;;11.49;45.94
25156;BME280;21913;52.456;13.634;2023-04-05T13:37:18;100773.56;;;11.50;46.35
25156;BME280;21913;52.456;13.634;2023-04-05T13:42:19;100772.72;;;11.51;46.98
25156;BME280;21913;52.456;13.634;2023-04-05T13:47:21;100760.63;;;11.52;47.62
25156;BME280;21913;52.456;13.634;2023-04-05T13:52:22;100751.13;;;11.51;48.13
25156;BME280;21913;52.456;13.634;2023-04-05T13:57:23;100749.41;;;11.53;48.52
25156;BME280;21913;52.456;13.634;2023-04-05T14:02:25;100746.81;;;11.53;48.98
25156;BME280;21913;52.456;13.634;2023-04-05T14:07:27;100740.78;;;11.54;49.00
25156;BME280;21913;52.456;13.634;2023-04-05T14:12:28;100737.28;;;11.52;49.45
25156;BME280;21913;52.456;13.634;2023-04-05T14:17:30;100739.91;;;11.55;49.65
25156;BME280;21913;52.456;13.634;2023-04-05T14:22:31;100736.47;;;11.54;49.96
25156;BME280;21913;52.456;13.634;2023-04-05T14:27:33;100733.88;;;11.54;50.19
25156;BME280;21913;52.456;13.634;2023-04-05T14:32:34;100723.50;;;11.54;50.57
25156;BME280;21913;52.456;13.634;2023-04-05T14:37:36;100719.19;;;11.55;50.85
25156;BME280;21913;52.456;13.634;2023-04-05T14:42:38;100713.13;;;11.56;51.05
25156;BME280;21913;52.456;13.634;2023-04-05T14:47:45;100711.41;;;11.55;51.17
25156;BME280;21913;52.456;13.634;2023-04-05T14:52:47;100705.38;;;11.56;51.28
25156;BME280;21913;52.456;13.634;2023-04-05T14:57:49;100703.63;;;11.56;51.36
25156;BME280;21913;52.456;13.634;2023-04-05T15:02:50;100695.00;;;11.56;51.62
25156;BME280;21913;52.456;13.634;2023-04-05T15:07:53;100693.28;;;11.56;51.72
25156;BME280;21913;52.456;13.634;2023-04-05T15:12:55;100686.34;;;11.57;51.88
25156;BME280;21913;52.456;13.634;2023-04-05T15:17:57;100676.84;;;11.57;51.96
25156;BME280;21913;52.456;13.634;2023-04-05T15:22:58;100680.34;;;11.58;51.97
25156;BME280;21913;52.456;13.634;2023-04-05T15:28:00;100682.03;;;11.57;52.24
25156;BME280;21913;52.456;13.634;2023-04-05T15:33:02;100671.69;;;11.57;52.15
25156;BME280;21913;52.456;13.634;2023-04-05T15:38:04;100667.38;;;11.58;52.47
25156;BME280;21913;52.456;13.634;2023-04-05T15:43:05;100661.31;;;11.57;52.46
25156;BME280;21913;52.456;13.634;2023-04-05T15:48:07;100659.63;;;11.59;52.51
25156;BME280;21913;52.456;13.634;2023-04-05T15:53:08;100657.03;;;11.58;52.72
25156;BME280;21913;52.456;13.634;2023-04-05T15:58:10;100644.94;;;11.58;52.70
25156;BME280;21913;52.456;13.634;2023-04-05T16:03:11;100647.53;;;11.58;52.77
25156;BME280;21913;52.456;13.634;2023-04-05T16:08:13;100654.44;;;11.59;52.84
25156;BME280;21913;52.456;13.634;2023-04-05T16:13:14;100650.97;;;11.59;52.93
25156;BME280;21913;52.456;13.634;2023-04-05T16:18:16;100649.25;;;11.59;52.95
25156;BME280;21913;52.456;13.634;2023-04-05T16:23:17;100652.69;;;11.58;52.99
25156;BME280;21913;52.456;13.634;2023-04-05T16:28:19;100646.66;;;11.59;53.24
25156;BME280;21913;52.456;13.634;2023-04-05T16:33:20;100643.19;;;11.59;53.38
25156;BME280;21913;52.456;13.634;2023-04-05T16:38:22;100639.75;;;11.58;53.40
25156;BME280;21913;52.456;13.634;2023-04-05T16:43:23;100641.47;;;11.59;53.47
25156;BME280;21913;52.456;13.634;2023-04-05T16:48:25;100641.47;;;11.59;53.44
25156;BME280;21913;52.456;13.634;2023-04-05T16:53:26;100641.47;;;11.59;53.61
25156;BME280;21913;52.456;13.634;2023-04-05T16:58:28;100642.34;;;11.60;53.50
25156;BME280;21913;52.456;13.634;2023-04-05T17:03:29;100636.28;;;11.59;53.52
25156;BME280;21913;52.456;13.634;2023-04-05T17:08:32;100633.69;;;11.59;53.72
25156;BME280;21913;52.456;13.634;2023-04-05T17:13:33;100633.69;;;11.59;53.69
25156;BME280;21913;52.456;13.634;2023-04-05T17:18:35;100637.16;;;11.60;53.72
25156;BME280;21913;52.456;13.634;2023-04-05T17:23:37;100633.69;;;11.59;53.88
25156;BME280;21913;52.456;13.634;2023-04-05T17:28:39;100633.69;;;11.59;53.96
25156;BME280;21913;52.456;13.634;2023-04-05T17:33:40;100627.66;;;11.61;54.04
25156;BME280;21913;52.456;13.634;2023-04-05T17:38:43;100629.38;;;11.60;54.08
25156;BME280;21913;52.456;13.634;2023-04-05T17:43:45;100632.84;;;11.59;54.36
25156;BME280;21913;52.456;13.634;2023-04-05T17:48:46;100635.41;;;11.61;54.19
25156;BME280;21913;52.456;13.634;2023-04-05T17:53:48;100632.81;;;11.61;54.45
25156;BME280;21913;52.456;13.634;2023-04-05T17:58:49;100635.41;;;11.59;54.38
25156;BME280;21913;52.456;13.634;2023-04-05T18:03:51;100636.28;;;11.59;54.34
25156;BME280;21913;52.456;13.634;2023-04-05T18:08:52;100636.28;;;11.59;54.57
25156;BME280;21913;52.456;13.634;2023-04-05T18:13:54;100635.41;;;11.59;54.78
25156;BME280;21913;52.456;13.634;2023-04-05T18:18:55;100638.88;;;11.59;54.56
25156;BME280;21913;52.456;13.634;2023-04-05T18:23:57;100650.97;;;11.61;54.70
25156;BME280;21913;52.456;13.634;2023-04-05T18:28:58;100652.69;;;11.58;54.37
25156;BME280;21913;52.456;13.634;2023-04-05T18:34:00;100659.56;;;11.56;53.58
25156;BME280;21913;52.456;13.634;2023-04-05T18:39:01;100656.13;;;11.57;53.48
25156;BME280;21913;52.456;13.634;2023-04-05T18:44:03;100663.94;;;11.59;53.91
25156;BME280;21913;52.456;13.634;2023-04-05T18:49:04;100662.19;;;11.58;53.89
25156;BME280;21913;52.456;13.634;2023-04-05T18:54:06;100668.25;;;11.58;53.97
25156;BME280;21913;52.456;13.634;2023-04-05T18:59:07;100663.94;;;11.59;54.19
25156;BME280;21913;52.456;13.634;2023-04-05T19:04:09;100671.72;;;11.59;54.17
25156;BME280;21913;52.456;13.634;2023-04-05T19:09:10;100680.34;;;11.59;54.11
25156;BME280;21913;52.456;13.634;2023-04-05T19:14:12;100682.94;;;11.59;54.56
25156;BME280;21913;52.456;13.634;2023-04-05T19:19:14;100676.88;;;11.59;54.47
25156;BME280;21913;52.456;13.634;2023-04-05T19:24:16;100676.88;;;11.59;54.37
25156;BME280;21913;52.456;13.634;2023-04-05T19:29:17;100682.06;;;11.59;54.63
25156;BME280;21913;52.456;13.634;2023-04-05T19:34:19;100680.34;;;11.59;54.60
25156;BME280;21913;52.456;13.634;2023-04-05T19:39:20;100677.75;;;11.59;54.61
25156;BME280;21913;52.456;13.634;2023-04-05T19:44:55;100675.16;;;11.59;54.65
25156;BME280;21913;52.456;13.634;2023-04-05T19:49:57;100672.56;;;11.59;54.82
25156;BME280;21913;52.456;13.634;2023-04-05T19:55:00;100675.16;;;11.59;54.64
25156;BME280;21913;52.456;13.634;2023-04-05T20:00:27;100669.97;;;11.59;54.76
25156;BME280;21913;52.456;13.634;2023-04-05T20:10:47;100668.25;;;11.58;54.90
25156;BME280;21913;52.456;13.634;2023-04-05T20:15:49;100669.97;;;11.59;54.83
25156;BME280;21913;52.456;13.634;2023-04-05T20:20:52;100661.34;;;11.59;54.88
25156;BME280;21913;52.456;13.634;2023-04-05T20:25:54;100660.47;;;11.58;54.99
25156;BME280;21913;52.456;13.634;2023-04-05T20:30:55;100657.88;;;11.58;55.08
25156;BME280;21913;52.456;13.634;2023-04-05T20:35:57;100659.63;;;11.59;55.05
25156;BME280;21913;52.456;13.634;2023-04-05T20:40:59;100653.56;;;11.59;55.11
25156;BME280;21913;52.456;13.634;2023-04-05T20:46:01;100657.03;;;11.59;55.09
25156;BME280;21913;52.456;13.634;2023-04-05T20:51:05;100645.78;;;11.59;55.16
25156;BME280;21913;52.456;13.634;2023-04-05T20:56:08;100644.06;;;11.59;55.26
25156;BME280;21913;52.456;13.634;2023-04-05T21:01:10;100642.34;;;11.58;55.15
25156;BME280;21913;52.456;13.634;2023-04-05T21:06:12;100637.97;;;11.57;55.09
25156;BME280;21913;52.456;13.634;2023-04-05T21:11:13;100637.16;;;11.58;55.25
25156;BME280;21913;52.456;13.634;2023-04-05T21:16:15;100639.75;;;11.60;55.32
25156;BME280;21913;52.456;13.634;2023-04-05T21:21:16;100630.25;;;11.59;55.25
25156;BME280;21913;52.456;13.634;2023-04-05T21:26:18;100621.59;;;11.58;55.26
25156;BME280;21913;52.456;13.634;2023-04-05T21:31:19;100625.06;;;11.59;55.23
25156;BME280;21913;52.456;13.634;2023-04-05T21:36:21;100623.31;;;11.59;55.43
25156;BME280;21913;52.456;13.634;2023-04-05T21:41:22;100619.00;;;11.58;55.48
25156;BME280;21913;52.456;13.634;2023-04-05T21:46:24;100620.72;;;11.59;55.47
25156;BME280;21913;52.456;13.634;2023-04-05T21:51:25;100621.59;;;11.58;55.42
25156;BME280;21913;52.456;13.634;2023-04-05T21:56:27;100621.59;;;11.58;55.48
25156;BME280;21913;52.456;13.634;2023-04-05T22:01:28;100614.69;;;11.59;55.59
25156;BME280;21913;52.456;13.634;2023-04-05T22:06:30;100614.69;;;11.59;55.56
25156;BME280;21913;52.456;13.634;2023-04-05T22:11:31;100611.22;;;11.58;55.43
25156;BME280;21913;52.456;13.634;2023-04-05T22:16:34;100614.69;;;11.59;55.58
25156;BME280;21913;52.456;13.634;2023-04-05T22:21:35;100601.72;;;11.59;55.57
25156;BME280;21913;52.456;13.634;2023-04-05T22:26:37;100606.91;;;11.59;55.73
25156;BME280;21913;52.456;13.634;2023-04-05T22:31:39;100601.72;;;11.59;55.53
25156;BME280;21913;52.456;13.634;2023-04-05T22:36:41;100599.13;;;11.59;55.49
25156;BME280;21913;52.456;13.634;2023-04-05T22:41:42;100590.50;;;11.58;55.79
25156;BME280;21913;52.456;13.634;2023-04-05T22:46:44;100591.38;;;11.59;55.64
25156;BME280;21913;52.456;13.634;2023-04-05T22:51:45;100589.63;;;11.58;55.67
25156;BME280;21913;52.456;13.634;2023-04-05T22:56:47;100581.84;;;11.58;55.73
25156;BME280;21913;52.456;13.634;2023-04-05T23:01:48;100583.59;;;11.59;55.76
25156;BME280;21913;52.456;13.634;2023-04-05T23:06:50;100570.63;;;11.59;55.69
25156;BME280;21913;52.456;13.634;2023-04-05T23:11:51;100581.84;;;11.59;55.76
25156;BME280;21913;52.456;13.634;2023-04-05T23:16:53;100578.38;;;11.57;55.77
25156;BME280;21913;52.456;13.634;2023-04-05T23:21:54;100575.81;;;11.59;55.81
25156;BME280;21913;52.456;13.634;2023-04-05T23:26:56;100567.16;;;11.58;55.77
25156;BME280;21913;52.456;13.634;2023-04-05T23:31:57;100564.59;;;11.58;55.89
25156;BME280;21913;52.456;13.634;2023-04-05T23:36:59;100565.44;;;11.59;55.81
25156;BME280;21913;52.456;13.634;2023-04-05T23:42:01;100551.63;;;11.58;56.03
25156;BME280;21913;52.456;13.634;2023-04-05T23:47:03;100552.47;;;11.57;55.96
25156;BME280;21913;52.456;13.634;2023-04-05T23:52:04;100546.44;;;11.58;55.96
25156;BME280;21913;52.456;13.634;2023-04-05T23:57:06;100544.72;;;11.59;56.01
